createdAt,value
2022-10-23T00:01:35.800Z,100660.94
2022-10-23T00:04:06.493Z,100655.78
2022-10-23T00:06:34.956Z,100644.59
2022-10-23T00:09:02.694Z,100646.94
2022-10-23T00:11:31.240Z,100645.78
2022-10-23T00:13:59.926Z,100641.09
2022-10-23T00:16:28.065Z,100652.81
2022-10-23T00:18:54.789Z,100645.78
2022-10-23T00:21:22.552Z,100656.13
2022-10-23T00:23:49.193Z,100653.13
2022-10-23T00:26:16.341Z,100653.31
2022-10-23T00:28:44.569Z,100653.19
2022-10-23T00:31:12.130Z,100652.41
2022-10-23T00:33:41.483Z,100647.97
2022-10-23T00:36:10.537Z,100661.06
2022-10-23T00:38:39.552Z,100658.47
2022-10-23T00:41:08.280Z,100663.81
2022-10-23T00:43:54.539Z,100649.59
2022-10-23T00:46:21.594Z,100643.78
2022-10-23T00:48:48.191Z,100643.78
2022-10-23T00:51:14.874Z,100650.97
2022-10-23T00:53:43.876Z,100642.38
2022-10-23T00:56:11.416Z,100640.50
2022-10-23T00:58:37.989Z,100641.13
2022-10-23T01:01:16.737Z,100639.09
2022-10-23T01:03:43.674Z,100635.84
2022-10-23T01:06:24.810Z,100633.81
2022-10-23T01:09:12.069Z,100635.41
2022-10-23T01:11:51.079Z,100623.56
2022-10-23T01:14:31.092Z,100624.56
2022-10-23T01:17:12.414Z,100622.97
2022-10-23T01:20:00.036Z,100619.72
2022-10-23T01:23:09.447Z,100624.38
2022-10-23T01:25:58.824Z,100630.19
2022-10-23T01:28:38.535Z,100629.81
2022-10-23T01:31:11.710Z,100618.31
2022-10-23T01:33:47.385Z,100625.03
2022-10-23T01:36:23.739Z,100637.19
2022-10-23T01:39:08.930Z,100633.00
2022-10-23T01:41:42.198Z,100621.00
2022-10-23T01:44:16.358Z,100613.53
2022-10-23T01:46:46.801Z,100611.09
2022-10-23T01:49:14.809Z,100617.56
2022-10-23T01:51:46.557Z,100605.09
2022-10-23T01:54:16.641Z,100602.94
2022-10-23T01:56:48.532Z,100606.06
2022-10-23T01:59:22.399Z,100601.50
2022-10-23T02:01:53.614Z,100586.50
2022-10-23T02:04:46.377Z,100583.94
2022-10-23T02:07:13.147Z,100578.22
2022-10-23T02:09:40.036Z,100574.59
2022-10-23T02:12:08.506Z,100565.31
2022-10-23T02:14:49.183Z,100563.41
2022-10-23T02:17:42.642Z,100557.28
2022-10-23T02:20:22.421Z,100553.94
2022-10-23T02:23:12.831Z,100555.44
2022-10-23T02:25:49.371Z,100557.47
2022-10-23T02:28:22.449Z,100552.75
2022-10-23T02:30:50.578Z,100561.34
2022-10-23T02:33:18.409Z,100558.31
2022-10-23T02:35:47.229Z,100552.28
2022-10-23T02:38:30.840Z,100541.75
2022-10-23T02:41:08.400Z,100546.22
2022-10-23T02:43:49.796Z,100547.91
2022-10-23T02:46:30.281Z,100555.44
2022-10-23T02:49:14.731Z,100556.78
2022-10-23T02:51:53.625Z,100554.53
2022-10-23T02:54:36.687Z,100558.69
2022-10-23T02:57:09.492Z,100553.06
2022-10-23T03:00:07.786Z,100554.34
2022-10-23T03:02:45.474Z,100545.56
2022-10-23T03:05:20.367Z,100545.56
2022-10-23T03:07:48.841Z,100540.19
2022-10-23T03:10:17.804Z,100546.56
2022-10-23T03:12:44.793Z,100541.53
2022-10-23T03:15:12.502Z,100541.31
2022-10-23T03:17:40.265Z,100538.44
2022-10-23T03:20:08.339Z,100535.00
2022-10-23T03:22:36.177Z,100529.41
2022-10-23T03:25:03.320Z,100522.28
2022-10-23T03:27:31.957Z,100509.28
2022-10-23T03:30:03.768Z,100509.72
2022-10-23T03:32:31.528Z,100504.56
2022-10-23T03:34:59.915Z,100503.25
2022-10-23T03:37:27.131Z,100500.34
2022-10-23T03:39:53.743Z,100501.91
2022-10-23T03:42:20.595Z,100492.78
2022-10-23T03:44:47.229Z,100490.09
2022-10-23T03:47:13.824Z,100492.06
2022-10-23T03:49:41.663Z,100499.16
2022-10-23T03:52:09.029Z,100494.22
2022-10-23T03:54:35.730Z,100501.69
2022-10-23T03:57:02.369Z,100502.13
2022-10-23T03:59:29.243Z,100487.69
2022-10-23T04:01:56.088Z,100482.78
2022-10-23T04:04:24.405Z,100485.16
2022-10-23T04:06:51.086Z,100482.25
2022-10-23T04:09:18.945Z,100478.59
2022-10-23T04:11:45.605Z,100468.56
2022-10-23T04:14:13.381Z,100470.72
2022-10-23T04:16:40.370Z,100463.47
2022-10-23T04:19:07.046Z,100465.19
2022-10-23T04:21:33.895Z,100472.84
2022-10-23T04:24:01.045Z,100475.19
2022-10-23T04:26:27.768Z,100474.53
2022-10-23T04:28:54.469Z,100461.38
2022-10-23T04:31:21.192Z,100469.44
2022-10-23T04:33:47.761Z,100473.66
2022-10-23T04:36:27.463Z,100474.44
2022-10-23T04:38:54.111Z,100469.91
2022-10-23T04:41:20.696Z,100468.91
2022-10-23T04:43:47.430Z,100464.59
2022-10-23T04:46:15.048Z,100464.25
2022-10-23T04:48:45.247Z,100461.00
2022-10-23T04:51:27.378Z,100462.69
2022-10-23T04:54:02.711Z,100454.44
2022-10-23T04:56:50.727Z,100436.13
2022-10-23T04:59:20.854Z,100437.72
2022-10-23T05:01:47.687Z,100441.50
2022-10-23T05:04:14.404Z,100434.50
2022-10-23T05:07:03.986Z,100438.09
2022-10-23T05:09:38.065Z,100436.34
2022-10-23T05:12:16.905Z,100439.59
2022-10-23T05:14:43.633Z,100442.22
2022-10-23T05:17:18.436Z,100437.38
2022-10-23T05:19:53.317Z,100432.56
2022-10-23T05:22:21.857Z,100433.19
2022-10-23T05:24:52.110Z,100438.72
2022-10-23T05:27:22.412Z,100430.59
2022-10-23T05:29:50.792Z,100419.16
2022-10-23T05:34:48.109Z,100415.72
2022-10-23T05:37:16.088Z,100417.19
2022-10-23T05:39:43.261Z,100416.25
2022-10-23T05:42:13.143Z,100420.13
2022-10-23T05:44:41.193Z,100424.44
2022-10-23T05:47:20.963Z,100422.13
2022-10-23T05:50:12.247Z,100416.16
2022-10-23T05:52:38.807Z,100406.97
2022-10-23T05:55:32.207Z,100404.00
2022-10-23T05:58:08.329Z,100395.91
2022-10-23T06:00:59.575Z,100399.88
2022-10-23T06:03:55.785Z,100403.38
2022-10-23T06:06:29.139Z,100386.19
2022-10-23T06:08:55.728Z,100392.72
2022-10-23T06:11:22.631Z,100387.56
2022-10-23T06:16:29.911Z,100379.69
2022-10-23T06:18:57.422Z,100375.22
2022-10-23T06:21:24.458Z,100375.84
2022-10-23T06:23:52.354Z,100379.19
2022-10-23T06:26:45.336Z,100373.81
2022-10-23T06:29:27.416Z,100367.31
2022-10-23T06:31:53.970Z,100367.06
2022-10-23T06:34:20.570Z,100365.03
2022-10-23T06:36:47.268Z,100373.34
2022-10-23T06:39:29.817Z,100366.78
2022-10-23T06:42:34.627Z,100370.09
2022-10-23T06:45:20.084Z,100374.19
2022-10-23T06:48:05.232Z,100379.84
2022-10-23T06:50:55.727Z,100374.84
2022-10-23T06:53:30.041Z,100381.13
2022-10-23T06:56:08.122Z,100383.63
2022-10-23T06:58:37.726Z,100377.59
2022-10-23T07:01:13.684Z,100384.38
2022-10-23T07:03:42.691Z,100388.94
2022-10-23T07:06:10.916Z,100381.47
2022-10-23T07:08:38.113Z,100380.00
2022-10-23T07:11:16.672Z,100383.44
2022-10-23T07:13:47.437Z,100375.44
2022-10-23T07:16:21.783Z,100379.84
2022-10-23T07:18:53.904Z,100373.16
2022-10-23T07:21:31.909Z,100379.66
2022-10-23T07:24:17.508Z,100365.56
2022-10-23T07:26:44.736Z,100371.88
2022-10-23T07:29:12.698Z,100365.72
2022-10-23T07:31:39.347Z,100371.88
2022-10-23T07:34:24.783Z,100375.66
2022-10-23T07:37:08.099Z,100371.16
2022-10-23T07:39:35.125Z,100363.69
2022-10-23T07:42:01.725Z,100356.09
2022-10-23T07:44:28.382Z,100352.84
2022-10-23T07:46:55.622Z,100348.38
2022-10-23T07:49:22.236Z,100346.09
2022-10-23T07:51:51.400Z,100352.13
2022-10-23T07:54:19.845Z,100349.97
2022-10-23T07:57:19.797Z,100345.25
2022-10-23T07:59:49.510Z,100345.97
2022-10-23T08:02:20.754Z,100339.97
2022-10-23T08:04:49.853Z,100337.53
2022-10-23T08:07:27.097Z,100333.56
2022-10-23T08:09:56.488Z,100344.66
2022-10-23T08:12:23.702Z,100332.47
2022-10-23T08:14:50.258Z,100332.47
2022-10-23T08:17:17.744Z,100335.75
2022-10-23T08:20:10.954Z,100326.06
2022-10-23T08:22:42.377Z,100334.06
2022-10-23T08:25:10.050Z,100331.16
2022-10-23T08:27:36.836Z,100328.50
2022-10-23T08:30:04.107Z,100325.72
2022-10-23T08:32:31.042Z,100324.78
2022-10-23T08:34:59.219Z,100311.72
2022-10-23T08:37:28.616Z,100314.03
2022-10-23T08:39:55.982Z,100319.47
2022-10-23T08:42:47.295Z,100319.66
2022-10-23T08:45:24.196Z,100319.31
2022-10-23T08:47:59.060Z,100315.56
2022-10-23T08:50:50.849Z,100316.91
2022-10-23T08:53:27.325Z,100302.16
2022-10-23T08:56:03.008Z,100291.75
2022-10-23T08:58:31.818Z,100292.38
2022-10-23T09:00:58.597Z,100297.53
2022-10-23T09:03:26.998Z,100297.53
2022-10-23T09:06:29.684Z,100298.75
2022-10-23T09:09:27.256Z,100295.25
2022-10-23T09:12:11.663Z,100285.69
2022-10-23T09:15:08.151Z,100275.41
2022-10-23T09:17:38.983Z,100270.69
2022-10-23T09:20:27.421Z,100271.88
2022-10-23T09:23:17.408Z,100268.22
2022-10-23T09:25:45.424Z,100262.06
2022-10-23T09:28:27.147Z,100254.31
2022-10-23T09:30:54.000Z,100252.03
2022-10-23T09:33:26.188Z,100250.09
2022-10-23T09:35:58.839Z,100248.66
2022-10-23T09:38:31.224Z,100248.22
2022-10-23T09:41:23.112Z,100242.09
2022-10-23T09:44:15.215Z,100244.63
2022-10-23T09:46:44.243Z,100236.53
2022-10-23T09:49:32.489Z,100238.81
2022-10-23T09:52:04.632Z,100240.09
2022-10-23T09:54:44.934Z,100244.75
2022-10-23T09:57:32.251Z,100236.94
2022-10-23T10:00:17.556Z,100253.97
2022-10-23T10:02:57.669Z,100240.22
2022-10-23T10:05:39.179Z,100235.75
2022-10-23T10:08:37.622Z,100231.03
2022-10-23T10:11:20.416Z,100230.59
2022-10-23T10:14:05.891Z,100226.50
2022-10-23T10:16:43.942Z,100228.03
2022-10-23T10:19:35.955Z,100223.47
2022-10-23T10:22:12.518Z,100214.88
2022-10-23T10:24:53.694Z,100209.31
2022-10-23T10:27:51.499Z,100212.25
2022-10-23T10:30:21.265Z,100206.69
2022-10-23T10:33:04.714Z,100197.31
2022-10-23T10:35:57.663Z,100194.66
2022-10-23T10:38:49.600Z,100185.28
2022-10-23T10:41:36.807Z,100175.88
2022-10-23T10:44:25.409Z,100181.94
2022-10-23T10:47:05.553Z,100192.03
2022-10-23T10:49:50.896Z,100178.19
2022-10-23T10:52:49.165Z,100172.63
2022-10-23T10:55:25.320Z,100173.66
2022-10-23T10:58:28.388Z,100175.88
2022-10-23T11:00:59.120Z,100168.59
2022-10-23T11:03:49.935Z,100154.75
2022-10-23T11:06:20.495Z,100156.94
2022-10-23T11:08:57.237Z,100150.84
2022-10-23T11:11:30.011Z,100147.63
2022-10-23T11:13:57.646Z,100144.25
2022-10-23T11:16:32.383Z,100129.53
2022-10-23T11:19:14.224Z,100122.63
2022-10-23T11:21:56.372Z,100110.88
2022-10-23T11:24:39.492Z,100105.50
2022-10-23T11:27:18.265Z,100104.47
2022-10-23T11:30:17.619Z,100105.97
2022-10-23T11:33:02.586Z,100086.25
2022-10-23T11:35:52.253Z,100074.25
2022-10-23T11:38:29.715Z,100067.88
2022-10-23T11:41:00.912Z,100074.91
2022-10-23T11:43:34.644Z,100058.81
2022-10-23T11:46:15.338Z,100058.38
2022-10-23T11:48:44.592Z,100041.38
2022-10-23T11:51:37.493Z,100046.84
2022-10-23T11:54:09.951Z,100043.50
2022-10-23T11:56:54.796Z,100045.81
2022-10-23T11:59:31.631Z,100045.09
2022-10-23T12:02:02.599Z,100041.19
2022-10-23T12:04:46.107Z,100045.88
2022-10-23T12:07:34.753Z,100040.00
2022-10-23T12:10:44.276Z,100040.16
2022-10-23T12:13:32.316Z,100031.25
2022-10-23T12:16:00.891Z,100031.78
2022-10-23T12:18:28.269Z,100035.19
2022-10-23T12:21:00.522Z,100029.59
2022-10-23T12:23:34.739Z,100014.56
2022-10-23T12:26:16.675Z,100004.00
2022-10-23T12:29:15.336Z,100007.91
2022-10-23T12:32:03.630Z,99998.44
2022-10-23T12:34:44.996Z,99994.03
2022-10-23T12:37:23.695Z,99979.88
2022-10-23T12:39:55.625Z,99989.13
2022-10-23T12:42:24.964Z,99965.13
2022-10-23T12:45:15.494Z,99968.84
2022-10-23T12:47:44.987Z,99959.06
2022-10-23T12:50:21.744Z,99965.25
2022-10-23T12:53:10.156Z,99966.75
2022-10-23T12:55:57.091Z,99958.19
2022-10-23T12:58:25.407Z,99951.78
2022-10-23T13:00:57.668Z,99946.19
2022-10-23T13:03:26.438Z,99934.78
2022-10-23T13:05:55.540Z,99939.31
2022-10-23T13:08:24.129Z,99927.00
2022-10-23T13:11:15.565Z,99924.25
2022-10-23T13:13:42.758Z,99918.41
2022-10-23T13:16:24.884Z,99903.03
2022-10-23T13:18:54.272Z,99916.44
2022-10-23T13:21:23.895Z,99909.47
2022-10-23T13:23:52.604Z,99910.31
2022-10-23T13:26:33.606Z,99907.53
2022-10-23T13:29:07.331Z,99905.84
2022-10-23T13:31:36.598Z,99909.22
2022-10-23T13:34:06.659Z,99918.72
2022-10-23T13:36:37.352Z,99910.31
2022-10-23T13:39:08.945Z,99903.09
2022-10-23T13:41:39.595Z,99896.38
2022-10-23T13:44:06.740Z,99883.22
2022-10-23T13:46:33.317Z,99894.09
2022-10-23T13:49:00.037Z,99878.75
2022-10-23T13:51:33.295Z,99872.59
2022-10-23T13:54:00.107Z,99871.22
2022-10-23T13:56:27.786Z,99878.53
2022-10-23T13:58:54.894Z,99878.53
2022-10-23T14:01:27.246Z,99875.44
2022-10-23T14:03:55.581Z,99878.22
2022-10-23T14:06:22.218Z,99874.59
2022-10-23T14:08:48.797Z,99871.22
2022-10-23T14:11:17.553Z,99863.97
2022-10-23T14:13:44.866Z,99861.47
2022-10-23T14:16:16.765Z,99859.47
2022-10-23T14:18:44.681Z,99866.78
2022-10-23T14:21:13.480Z,99862.28
2022-10-23T14:23:40.207Z,99866.75
2022-10-23T14:26:10.144Z,99858.38
2022-10-23T14:28:37.543Z,99854.19
2022-10-23T14:31:06.146Z,99853.66
2022-10-23T14:33:33.235Z,99857.28
2022-10-23T14:36:00.645Z,99855.59
2022-10-23T14:38:28.046Z,99857.28
2022-10-23T14:40:54.726Z,99851.69
2022-10-23T14:43:22.528Z,99841.63
2022-10-23T14:45:49.170Z,99829.31
2022-10-23T14:48:16.292Z,99829.28
2022-10-23T14:50:47.151Z,99824.28
2022-10-23T14:53:15.010Z,99824.56
2022-10-23T14:55:41.847Z,99817.88
2022-10-23T14:58:08.789Z,99815.34
2022-10-23T15:00:35.637Z,99818.72
2022-10-23T15:03:02.370Z,99808.94
2022-10-23T15:05:29.060Z,99804.75
2022-10-23T15:07:56.768Z,99800.28
2022-10-23T15:10:23.363Z,99798.03
2022-10-23T15:12:50.178Z,99784.03
2022-10-23T15:15:16.754Z,99786.31
2022-10-23T15:17:43.897Z,99790.19
2022-10-23T15:20:10.782Z,99788.53
2022-10-23T15:22:37.495Z,99775.41
2022-10-23T15:25:04.444Z,99772.06
2022-10-23T15:27:31.530Z,99786.84
2022-10-23T15:29:58.104Z,99795.50
2022-10-23T15:32:25.220Z,99818.41
2022-10-23T15:34:53.639Z,99846.91
2022-10-23T15:37:20.310Z,99849.13
2022-10-23T15:39:47.518Z,99835.72
2022-10-23T15:42:14.263Z,99808.34
2022-10-23T15:44:41.490Z,99808.34
2022-10-23T15:47:08.282Z,99809.47
2022-10-23T15:49:35.609Z,99798.59
2022-10-23T15:52:04.700Z,99808.63
2022-10-23T15:54:33.064Z,99834.84
2022-10-23T15:57:00.251Z,99817.81
2022-10-23T15:59:28.808Z,99814.72
2022-10-23T16:01:55.772Z,99822.84
2022-10-23T16:04:23.278Z,99819.22
2022-10-23T16:06:50.371Z,99825.34
2022-10-23T16:09:17.290Z,99823.13
2022-10-23T16:11:44.170Z,99829.84
2022-10-23T16:14:17.077Z,99818.09
2022-10-23T16:16:44.178Z,99827.59
2022-10-23T16:19:12.129Z,99832.88
2022-10-23T16:21:39.320Z,99825.00
2022-10-23T16:24:08.058Z,99818.31
2022-10-23T16:26:35.620Z,99823.00
2022-10-23T16:29:05.306Z,99817.69
2022-10-23T16:31:32.316Z,99835.31
2022-10-23T16:34:00.803Z,99834.22
2022-10-23T16:36:28.561Z,99819.69
2022-10-23T16:39:16.750Z,99834.22
2022-10-23T16:42:04.699Z,99816.88
2022-10-23T16:44:56.674Z,99820.25
2022-10-23T16:47:24.035Z,99835.03
2022-10-23T16:49:50.623Z,99842.00
2022-10-23T16:52:17.258Z,99833.63
2022-10-23T16:54:44.162Z,99845.88
2022-10-23T16:57:10.867Z,99853.13
2022-10-23T16:59:37.512Z,99858.72
2022-10-23T17:02:04.441Z,99858.66
2022-10-23T17:04:31.122Z,99864.78
2022-10-23T17:06:57.690Z,99877.59
2022-10-23T17:09:26.425Z,99884.88
2022-10-23T17:11:54.038Z,99920.84
2022-10-23T17:14:21.193Z,99932.81
2022-10-23T17:16:50.303Z,99941.97
2022-10-23T17:19:43.855Z,99944.81
2022-10-23T17:22:10.672Z,99942.81
2022-10-23T17:24:40.178Z,99898.19
2022-10-23T17:27:07.140Z,99846.22
2022-10-23T17:29:33.835Z,99798.59
2022-10-23T17:32:00.596Z,99754.94
2022-10-23T17:34:27.286Z,99777.19
2022-10-23T17:36:55.044Z,99786.53
2022-10-23T17:39:25.229Z,99801.16
2022-10-23T17:41:52.593Z,99835.09
2022-10-23T17:44:19.972Z,99849.00
2022-10-23T17:46:53.149Z,99864.97
2022-10-23T17:49:20.964Z,99874.72
2022-10-23T17:51:56.329Z,99871.69
2022-10-23T17:54:24.980Z,99866.78
2022-10-23T17:56:51.577Z,99858.06
2022-10-23T17:59:21.450Z,99854.44
2022-10-23T18:01:49.224Z,99846.94
2022-10-23T18:04:18.656Z,99839.75
2022-10-23T18:06:48.483Z,99848.75
2022-10-23T18:09:15.769Z,99867.50
2022-10-23T18:11:48.164Z,99879.00
2022-10-23T18:14:18.063Z,99882.06
2022-10-23T18:16:45.679Z,99885.28
2022-10-23T18:19:13.767Z,99892.56
2022-10-23T18:21:40.527Z,99890.31
2022-10-23T18:24:07.232Z,99887.72
2022-10-23T18:26:39.020Z,99870.16
2022-10-23T18:29:09.722Z,99876.59
2022-10-23T18:31:37.576Z,99869.13
2022-10-23T18:34:07.534Z,99858.75
2022-10-23T18:36:37.359Z,99844.84
2022-10-23T18:39:05.551Z,99842.97
2022-10-23T18:41:37.192Z,99839.94
2022-10-23T18:44:04.341Z,99842.81
2022-10-23T18:46:30.976Z,99829.44
2022-10-23T18:48:59.683Z,99820.34
2022-10-23T18:51:29.313Z,99812.53
2022-10-23T18:53:56.085Z,99807.53
2022-10-23T18:56:25.972Z,99810.50
2022-10-23T18:58:54.888Z,99807.13
2022-10-23T19:01:22.978Z,99815.78
2022-10-23T19:03:50.418Z,99814.44
2022-10-23T19:06:17.620Z,99801.38
2022-10-23T19:08:45.525Z,99800.56
2022-10-23T19:11:14.283Z,99806.13
2022-10-23T19:13:41.804Z,99801.72
2022-10-23T19:16:26.511Z,99801.50
2022-10-23T19:19:06.740Z,99796.00
2022-10-23T19:21:37.154Z,99780.38
2022-10-23T19:24:11.696Z,99788.91
2022-10-23T19:26:40.388Z,99798.47
2022-10-23T19:29:09.862Z,99781.25
2022-10-23T19:31:36.807Z,99789.31
2022-10-23T19:34:03.793Z,99780.72
2022-10-23T19:36:31.638Z,99764.03
2022-10-23T19:38:58.397Z,99765.22
2022-10-23T19:41:24.987Z,99767.56
2022-10-23T19:43:51.544Z,99775.16
2022-10-23T19:46:18.184Z,99771.81
2022-10-23T19:48:46.687Z,99773.97
2022-10-23T19:51:13.615Z,99766.22
2022-10-23T19:53:41.823Z,99779.66
2022-10-23T19:56:11.708Z,99787.66
2022-10-23T19:58:39.849Z,99782.94
2022-10-23T20:01:16.761Z,99774.69
2022-10-23T20:03:50.448Z,99778.94
2022-10-23T20:06:20.996Z,99785.97
2022-10-23T20:08:48.033Z,99767.13
2022-10-23T20:11:20.801Z,99777.72
2022-10-23T20:13:49.082Z,99772.16
2022-10-23T20:16:20.938Z,99775.69
2022-10-23T20:18:48.189Z,99773.75
2022-10-23T20:21:16.190Z,99775.69
2022-10-23T20:23:43.699Z,99774.06
2022-10-23T20:26:13.595Z,99771.56
2022-10-23T20:28:40.399Z,99773.75
2022-10-23T20:31:11.650Z,99781.03
2022-10-23T20:33:40.729Z,99772.69
2022-10-23T20:36:25.155Z,99788.34
2022-10-23T20:38:52.133Z,99796.16
2022-10-23T20:41:19.592Z,99796.19
2022-10-23T20:43:46.500Z,99803.19
2022-10-23T20:46:13.334Z,99818.47
2022-10-23T20:48:43.051Z,99846.31
2022-10-23T20:51:13.476Z,99867.50
2022-10-23T20:53:41.764Z,99860.75
2022-10-23T20:56:12.728Z,99876.84
2022-10-23T20:58:40.147Z,99881.50
2022-10-23T21:01:13.008Z,99869.81
2022-10-23T21:03:39.871Z,99872.22
2022-10-23T21:06:12.613Z,99872.91
2022-10-23T21:08:40.408Z,99872.94
2022-10-23T21:11:10.372Z,99860.66
2022-10-23T21:13:37.316Z,99865.53
2022-10-23T21:16:16.936Z,99839.00
2022-10-23T21:18:46.707Z,99847.69
2022-10-23T21:21:17.165Z,99838.91
2022-10-23T21:23:43.866Z,99832.81
2022-10-23T21:26:10.532Z,99824.19
2022-10-23T21:28:37.393Z,99820.38
2022-10-23T21:31:12.780Z,99830.19
2022-10-23T21:33:40.236Z,99834.63
2022-10-23T21:36:14.606Z,99834.03
2022-10-23T21:38:41.220Z,99844.63
2022-10-23T21:41:13.000Z,99849.06
2022-10-23T21:43:39.670Z,99855.25
2022-10-23T21:46:11.475Z,99852.28
2022-10-23T21:48:38.297Z,99854.88
2022-10-23T21:51:05.414Z,99850.75
2022-10-23T21:53:32.694Z,99862.41
2022-10-23T21:56:05.091Z,99849.22
2022-10-23T21:58:32.780Z,99844.25
2022-10-23T22:01:00.245Z,99857.38
2022-10-23T22:03:26.830Z,99857.69
2022-10-23T22:05:53.629Z,99860.75
2022-10-23T22:08:20.450Z,99852.03
2022-10-23T22:10:47.390Z,99846.66
2022-10-23T22:13:14.354Z,99846.13
2022-10-23T22:15:41.050Z,99844.69
2022-10-23T22:18:07.736Z,99853.00
2022-10-23T22:20:34.509Z,99856.88
2022-10-23T22:23:01.075Z,99853.22
2022-10-23T22:25:27.631Z,99850.53
2022-10-23T22:27:54.640Z,99852.44
2022-10-23T22:30:21.218Z,99859.97
2022-10-23T22:32:47.847Z,99844.91
2022-10-23T22:35:14.547Z,99838.72
2022-10-23T22:37:41.251Z,99837.56
2022-10-23T22:40:09.042Z,99829.75
2022-10-23T22:42:35.913Z,99840.69
2022-10-23T22:45:02.552Z,99832.56
2022-10-23T22:47:30.164Z,99829.31
2022-10-23T22:49:56.699Z,99838.19
2022-10-23T22:52:23.251Z,99848.50
2022-10-23T22:54:49.774Z,99848.78
2022-10-23T22:57:16.457Z,99842.66
2022-10-23T22:59:43.051Z,99852.13
2022-10-23T23:02:09.979Z,99843.75
2022-10-23T23:04:38.332Z,99847.13
2022-10-23T23:07:07.965Z,99841.59
2022-10-23T23:09:43.096Z,99849.13
2022-10-23T23:12:12.609Z,99840.91
2022-10-23T23:14:40.468Z,99844.88
2022-10-23T23:17:08.356Z,99843.84
2022-10-23T23:19:35.799Z,99836.66
2022-10-23T23:22:03.032Z,99836.34
2022-10-23T23:24:29.804Z,99840.44
2022-10-23T23:26:56.448Z,99833.78
2022-10-23T23:29:23.607Z,99838.44
2022-10-23T23:31:50.212Z,99825.38
2022-10-23T23:34:16.737Z,99829.34
2022-10-23T23:36:43.651Z,99819.06
2022-10-23T23:39:10.938Z,99818.44
2022-10-23T23:41:38.158Z,99819.50
2022-10-23T23:44:04.998Z,99827.66
2022-10-23T23:46:32.043Z,99832.13
2022-10-23T23:48:58.920Z,99824.06
2022-10-23T23:51:26.580Z,99814.34
2022-10-23T23:53:53.253Z,99807.38
2022-10-23T23:56:20.975Z,99814.66
2022-10-23T23:58:48.043Z,99817.44
